sensor_id;sensor_type;location;lat;lon;timestamp;pressure;altitude;pressure_sealevel;temperature;humidity
37610;BME280;23457;51.966;8.230;2024-01-15T00:00:55;99333.03;;;1.71;100.00
37610;BME280;23457;51.966;8.230;2024-01-15T00:03:22;99338.47;;;1.53;100.00
37610;BME280;23457;51.966;8.230;2024-01-15T00:05:49;99337.44;;;1.47;100.00
37610;BME280;23457;51.966;8.230;2024-01-15T00:08:15;99331.53;;;1.49;100.00
37610;BME280;23457;51.966;8.230;2024-01-15T00:10:42;99326.69;;;1.58;100.00
37610;BME280;23457;51.966;8.230;2024-01-15T00:13:09;99328.38;;;1.58;100.00
37610;BME280;23457;51.966;8.230;2024-01-15T00:15:36;99321.75;;;1.64;100.00
37610;BME280;23457;51.966;8.230;2024-01-15T00:18:02;99326.25;;;1.44;100.00
37610;BME280;23457;51.966;8.230;2024-01-15T00:20:29;99310.63;;;1.64;100.00
37610;BME280;23457;51.966;8.230;2024-01-15T00:22:56;99313.19;;;1.64;100.00
37610;BME280;23457;51.966;8.230;2024-01-15T00:25:23;99310.22;;;1.50;100.00
37610;BME280;23457;51.966;8.230;2024-01-15T00:27:50;99312.63;;;1.74;100.00
37610;BME280;23457;51.966;8.230;2024-01-15T00:30:17;99325.28;;;1.69;100.00
37610;BME280;23457;51.966;8.230;2024-01-15T00:32:43;99315.03;;;1.69;100.00
37610;BME280;23457;51.966;8.230;2024-01-15T00:35:10;99316.44;;;1.58;100.00
37610;BME280;23457;51.966;8.230;2024-01-15T00:37:37;99308.06;;;1.64;100.00
37610;BME280;23457;51.966;8.230;2024-01-15T00:40:04;99317.81;;;1.75;100.00
37610;BME280;23457;51.966;8.230;2024-01-15T00:42:32;99315.88;;;1.68;100.00
37610;BME280;23457;51.966;8.230;2024-01-15T00:44:58;99312.97;;;1.86;100.00
37610;BME280;23457;51.966;8.230;2024-01-15T00:47:25;99306.97;;;1.86;100.00
37610;BME280;23457;51.966;8.230;2024-01-15T00:49:52;99303.94;;;1.69;100.00
37610;BME280;23457;51.966;8.230;2024-01-15T00:52:19;99305.06;;;1.78;100.00
37610;BME280;23457;51.966;8.230;2024-01-15T00:54:45;99301.84;;;1.56;100.00
37610;BME280;23457;51.966;8.230;2024-01-15T00:57:12;99307.41;;;1.71;100.00
37610;BME280;23457;51.966;8.230;2024-01-15T00:59:39;99301.84;;;1.56;100.00
37610;BME280;23457;51.966;8.230;2024-01-15T01:02:05;99293.94;;;1.76;100.00
37610;BME280;23457;51.966;8.230;2024-01-15T01:04:32;99287.81;;;1.43;100.00
37610;BME280;23457;51.966;8.230;2024-01-15T01:06:59;99288.63;;;1.42;100.00
37610;BME280;23457;51.966;8.230;2024-01-15T01:09:26;99293.69;;;1.40;100.00
37610;BME280;23457;51.966;8.230;2024-01-15T01:11:56;99285.69;;;1.58;100.00
37610;BME280;23457;51.966;8.230;2024-01-15T01:14:23;99296.50;;;1.48;100.00
37610;BME280;23457;51.966;8.230;2024-01-15T01:16:49;99289.78;;;1.52;100.00
37610;BME280;23457;51.966;8.230;2024-01-15T01:19:16;99296.19;;;1.67;100.00
37610;BME280;23457;51.966;8.230;2024-01-15T01:21:43;99296.25;;;1.39;100.00
37610;BME280;23457;51.966;8.230;2024-01-15T01:24:10;99288.47;;;1.36;100.00
37610;BME280;23457;51.966;8.230;2024-01-15T01:26:37;99286.47;;;1.56;100.00
37610;BME280;23457;51.966;8.230;2024-01-15T01:29:03;99293.59;;;1.66;100.00
37610;BME280;23457;51.966;8.230;2024-01-15T01:31:30;99280.13;;;1.43;100.00
37610;BME280;23457;51.966;8.230;2024-01-15T01:33:57;99285.59;;;1.55;100.00
37610;BME280;23457;51.966;8.230;2024-01-15T01:36:24;99285.34;;;1.46;100.00
37610;BME280;23457;51.966;8.230;2024-01-15T01:38:50;99273.69;;;1.27;100.00
37610;BME280;23457;51.966;8.230;2024-01-15T01:41:17;99281.00;;;1.43;100.00
37610;BME280;23457;51.966;8.230;2024-01-15T01:43:44;99284.75;;;1.55;100.00
37610;BME280;23457;51.966;8.230;2024-01-15T01:46:10;99273.63;;;1.54;100.00
37610;BME280;23457;51.966;8.230;2024-01-15T01:48:38;99268.16;;;1.42;100.00
37610;BME280;23457;51.966;8.230;2024-01-15T01:51:06;99273.13;;;1.36;100.00
37610;BME280;23457;51.966;8.230;2024-01-15T01:53:34;99263.81;;;1.39;100.00
37610;BME280;23457;51.966;8.230;2024-01-15T01:56:02;99273.38;;;1.45;100.00
37610;BME280;23457;51.966;8.230;2024-01-15T01:58:31;99272.19;;;1.34;100.00
37610;BME280;23457;51.966;8.230;2024-01-15T02:00:59;99262.09;;;1.38;100.00
37610;BME280;23457;51.966;8.230;2024-01-15T02:03:27;99258.81;;;1.44;100.00
37610;BME280;23457;51.966;8.230;2024-01-15T02:05:54;99258.00;;;1.45;100.00
37610;BME280;23457;51.966;8.230;2024-01-15T02:08:22;99247.88;;;1.48;100.00
37610;BME280;23457;51.966;8.230;2024-01-15T02:10:48;99253.94;;;1.52;100.00
37610;BME280;23457;51.966;8.230;2024-01-15T02:13:15;99246.63;;;1.64;100.00
37610;BME280;23457;51.966;8.230;2024-01-15T02:15:42;99252.63;;;1.36;100.00
37610;BME280;23457;51.966;8.230;2024-01-15T02:18:08;99247.78;;;1.45;100.00
37610;BME280;23457;51.966;8.230;2024-01-15T02:20:35;99256.88;;;1.35;100.00
37610;BME280;23457;51.966;8.230;2024-01-15T02:23:11;99264.88;;;1.46;100.00
37610;BME280;23457;51.966;8.230;2024-01-15T02:25:42;99256.53;;;1.53;100.00
37610;BME280;23457;51.966;8.230;2024-01-15T02:28:14;99248.63;;;1.46;100.00
37610;BME280;23457;51.966;8.230;2024-01-15T02:30:42;99257.28;;;1.21;100.00
37610;BME280;23457;51.966;8.230;2024-01-15T02:33:11;99245.00;;;1.37;100.00
37610;BME280;23457;51.966;8.230;2024-01-15T02:35:38;99255.41;;;1.15;100.00
37610;BME280;23457;51.966;8.230;2024-01-15T02:38:06;99264.69;;;1.40;100.00
37610;BME280;23457;51.966;8.230;2024-01-15T02:40:35;99266.91;;;1.58;100.00
37610;BME280;23457;51.966;8.230;2024-01-15T02:43:01;99270.66;;;1.39;100.00
37610;BME280;23457;51.966;8.230;2024-01-15T02:45:28;99255.63;;;1.51;100.00
37610;BME280;23457;51.966;8.230;2024-01-15T02:47:55;99264.72;;;1.41;100.00
37610;BME280;23457;51.966;8.230;2024-01-15T02:50:22;99249.97;;;1.33;100.00
37610;BME280;23457;51.966;8.230;2024-01-15T02:52:48;99262.78;;;1.33;100.00
37610;BME280;23457;51.966;8.230;2024-01-15T02:55:15;99251.81;;;1.37;100.00
37610;BME280;23457;51.966;8.230;2024-01-15T02:57:42;99250.03;;;1.34;100.00
37610;BME280;23457;51.966;8.230;2024-01-15T03:00:09;99236.09;;;1.25;100.00
37610;BME280;23457;51.966;8.230;2024-01-15T03:02:37;99255.88;;;1.30;100.00
37610;BME280;23457;51.966;8.230;2024-01-15T03:05:11;99269.78;;;1.40;100.00
37610;BME280;23457;51.966;8.230;2024-01-15T03:07:38;99257.03;;;1.41;100.00
37610;BME280;23457;51.966;8.230;2024-01-15T03:10:05;99256.16;;;1.41;100.00
37610;BME280;23457;51.966;8.230;2024-01-15T03:12:32;99264.41;;;1.31;100.00
37610;BME280;23457;51.966;8.230;2024-01-15T03:14:59;99252.28;;;1.24;100.00
37610;BME280;23457;51.966;8.230;2024-01-15T03:17:26;99259.50;;;1.37;100.00
37610;BME280;23457;51.966;8.230;2024-01-15T03:19:52;99264.03;;;1.47;100.00
37610;BME280;23457;51.966;8.230;2024-01-15T03:22:19;99249.97;;;1.33;100.00
37610;BME280;23457;51.966;8.230;2024-01-15T03:24:46;99255.03;;;1.60;100.00
37610;BME280;23457;51.966;8.230;2024-01-15T03:27:13;99260.44;;;1.70;100.00
37610;BME280;23457;51.966;8.230;2024-01-15T03:29:40;99250.41;;;1.48;100.00
37610;BME280;23457;51.966;8.230;2024-01-15T03:32:07;99243.00;;;1.57;100.00
37610;BME280;23457;51.966;8.230;2024-01-15T03:34:33;99231.38;;;1.38;100.00
37610;BME280;23457;51.966;8.230;2024-01-15T03:37:00;99239.06;;;1.38;100.00
37610;BME280;23457;51.966;8.230;2024-01-15T03:40:05;99233.78;;;1.34;100.00
37610;BME280;23457;51.966;8.230;2024-01-15T03:43:07;99247.03;;;1.49;100.00
37610;BME280;23457;51.966;8.230;2024-01-15T03:45:33;99242.66;;;1.45;100.00
37610;BME280;23457;51.966;8.230;2024-01-15T03:48:00;99242.75;;;1.48;100.00
37610;BME280;23457;51.966;8.230;2024-01-15T03:50:27;99246.13;;;1.47;100.00
37610;BME280;23457;51.966;8.230;2024-01-15T03:52:54;99254.59;;;1.74;100.00
37610;BME280;23457;51.966;8.230;2024-01-15T03:55:20;99262.50;;;1.54;100.00
37610;BME280;23457;51.966;8.230;2024-01-15T03:57:47;99253.44;;;1.63;100.00
37610;BME280;23457;51.966;8.230;2024-01-15T04:00:14;99257.06;;;1.71;100.00
37610;BME280;23457;51.966;8.230;2024-01-15T04:02:43;99259.06;;;1.52;100.00
37610;BME280;23457;51.966;8.230;2024-01-15T04:05:10;99264.03;;;1.47;100.00
37610;BME280;23457;51.966;8.230;2024-01-15T04:07:37;99260.63;;;1.47;100.00
37610;BME280;23457;51.966;8.230;2024-01-15T04:10:04;99259.59;;;1.41;100.00
37610;BME280;23457;51.966;8.230;2024-01-15T04:12:31;99259.22;;;1.58;100.00
37610;BME280;23457;51.966;8.230;2024-01-15T04:14:58;99262.97;;;1.39;100.00
37610;BME280;23457;51.966;8.230;2024-01-15T04:17:24;99249.66;;;1.51;100.00
37610;BME280;23457;51.966;8.230;2024-01-15T04:19:51;99252.41;;;1.58;100.00
37610;BME280;23457;51.966;8.230;2024-01-15T04:22:18;99248.88;;;1.55;100.00
37610;BME280;23457;51.966;8.230;2024-01-15T04:24:45;99249.31;;;1.40;100.00
37610;BME280;23457;51.966;8.230;2024-01-15T04:27:11;99248.44;;;1.38;100.00
37610;BME280;23457;51.966;8.230;2024-01-15T04:29:38;99244.69;;;1.57;100.00
37610;BME280;23457;51.966;8.230;2024-01-15T04:32:07;99252.38;;;1.57;100.00
37610;BME280;23457;51.966;8.230;2024-01-15T04:34:34;99240.81;;;1.41;100.00
37610;BME280;23457;51.966;8.230;2024-01-15T04:37:01;99240.22;;;1.50;100.00
37610;BME280;23457;51.966;8.230;2024-01-15T04:39:28;99246.91;;;1.44;100.00
37610;BME280;23457;51.966;8.230;2024-01-15T04:41:54;99240.66;;;1.35;100.00
37610;BME280;23457;51.966;8.230;2024-01-15T04:44:21;99228.94;;;1.43;100.00
37610;BME280;23457;51.966;8.230;2024-01-15T04:46:48;99227.50;;;1.23;100.00
37610;BME280;23457;51.966;8.230;2024-01-15T04:49:14;99220.44;;;1.44;100.00
37610;BME280;23457;51.966;8.230;2024-01-15T04:51:41;99221.91;;;1.36;100.00
37610;BME280;23457;51.966;8.230;2024-01-15T04:54:08;99218.75;;;1.16;100.00
37610;BME280;23457;51.966;8.230;2024-01-15T04:56:35;99222.59;;;1.30;100.00
37610;BME280;23457;51.966;8.230;2024-01-15T04:59:10;99211.78;;;1.39;100.00
37610;BME280;23457;51.966;8.230;2024-01-15T05:01:45;99203.66;;;1.55;100.00
37610;BME280;23457;51.966;8.230;2024-01-15T05:04:12;99207.31;;;1.33;100.00
37610;BME280;23457;51.966;8.230;2024-01-15T05:06:39;99208.53;;;1.16;100.00
37610;BME280;23457;51.966;8.230;2024-01-15T05:09:06;99214.13;;;1.33;100.00
37610;BME280;23457;51.966;8.230;2024-01-15T05:11:33;99217.22;;;1.21;100.00
37610;BME280;23457;51.966;8.230;2024-01-15T05:14:05;99206.94;;;1.20;100.00
37610;BME280;23457;51.966;8.230;2024-01-15T05:16:32;99215.84;;;1.32;100.00
37610;BME280;23457;51.966;8.230;2024-01-15T05:18:59;99209.50;;;1.20;100.00
37610;BME280;23457;51.966;8.230;2024-01-15T05:21:26;99211.94;;;1.17;100.00
37610;BME280;23457;51.966;8.230;2024-01-15T05:23:53;99209.84;;;1.32;100.00
37610;BME280;23457;51.966;8.230;2024-01-15T05:26:19;99214.81;;;1.27;100.00
37610;BME280;23457;51.966;8.230;2024-01-15T05:28:46;99208.78;;;1.24;100.00
37610;BME280;23457;51.966;8.230;2024-01-15T05:31:13;99204.97;;;1.41;100.00
37610;BME280;23457;51.966;8.230;2024-01-15T05:33:40;99210.00;;;1.08;100.00
37610;BME280;23457;51.966;8.230;2024-01-15T05:36:07;99209.75;;;1.29;100.00
37610;BME280;23457;51.966;8.230;2024-01-15T05:38:34;99198.25;;;1.44;100.00
37610;BME280;23457;51.966;8.230;2024-01-15T05:41:01;99201.16;;;1.27;100.00
37610;BME280;23457;51.966;8.230;2024-01-15T05:43:27;99198.97;;;1.39;100.00
37610;BME280;23457;51.966;8.230;2024-01-15T05:45:54;99192.75;;;1.31;100.00
37610;BME280;23457;51.966;8.230;2024-01-15T05:48:22;99202.88;;;1.28;100.00
37610;BME280;23457;51.966;8.230;2024-01-15T05:50:49;99205.75;;;1.08;100.00
37610;BME280;23457;51.966;8.230;2024-01-15T05:53:16;99205.91;;;1.15;100.00
37610;BME280;23457;51.966;8.230;2024-01-15T05:55:42;99211.03;;;1.15;100.00
37610;BME280;23457;51.966;8.230;2024-01-15T05:58:09;99201.53;;;1.40;100.00
37610;BME280;23457;51.966;8.230;2024-01-15T06:00:36;99205.03;;;1.13;100.00
37610;BME280;23457;51.966;8.230;2024-01-15T06:03:40;99198.38;;;1.19;100.00
37610;BME280;23457;51.966;8.230;2024-01-15T06:06:08;99189.22;;;1.26;100.00
37610;BME280;23457;51.966;8.230;2024-01-15T06:08:37;99189.97;;;1.23;100.00
37610;BME280;23457;51.966;8.230;2024-01-15T06:11:31;99194.91;;;1.47;100.00
37610;BME280;23457;51.966;8.230;2024-01-15T06:14:15;99194.53;;;1.33;100.00
37610;BME280;23457;51.966;8.230;2024-01-15T06:16:42;99195.59;;;1.41;100.00
37610;BME280;23457;51.966;8.230;2024-01-15T06:19:09;99186.81;;;1.32;100.00
37610;BME280;23457;51.966;8.230;2024-01-15T06:21:36;99198.31;;;1.46;100.00
37610;BME280;23457;51.966;8.230;2024-01-15T06:24:02;99198.47;;;1.52;100.00
37610;BME280;23457;51.966;8.230;2024-01-15T06:26:29;99206.66;;;1.40;100.00
37610;BME280;23457;51.966;8.230;2024-01-15T06:28:56;99200.53;;;1.34;100.00
37610;BME280;23457;51.966;8.230;2024-01-15T06:31:22;99198.78;;;1.33;100.00
37610;BME280;23457;51.966;8.230;2024-01-15T06:33:49;99205.44;;;1.26;100.00
37610;BME280;23457;51.966;8.230;2024-01-15T06:36:16;99199.59;;;1.32;100.00
37610;BME280;23457;51.966;8.230;2024-01-15T06:38:43;99200.53;;;1.34;100.00
37610;BME280;23457;51.966;8.230;2024-01-15T06:41:10;99200.44;;;1.31;100.00
37610;BME280;23457;51.966;8.230;2024-01-15T06:43:37;99195.06;;;1.53;100.00
37610;BME280;23457;51.966;8.230;2024-01-15T06:46:04;99189.22;;;1.26;100.00
37610;BME280;23457;51.966;8.230;2024-01-15T06:48:34;99198.13;;;1.40;100.00
37610;BME280;23457;51.966;8.230;2024-01-15T06:51:01;99202.25;;;1.35;100.00
37610;BME280;23457;51.966;8.230;2024-01-15T06:53:27;99199.41;;;1.24;100.00
37610;BME280;23457;51.966;8.230;2024-01-15T06:55:54;99206.25;;;1.25;100.00
37610;BME280;23457;51.966;8.230;2024-01-15T06:58:20;99203.81;;;1.30;100.00
37610;BME280;23457;51.966;8.230;2024-01-15T07:00:47;99213.13;;;1.26;100.00
37610;BME280;23457;51.966;8.230;2024-01-15T07:03:14;99223.22;;;1.22;100.00
37610;BME280;23457;51.966;8.230;2024-01-15T07:05:41;99216.28;;;1.48;100.00
37610;BME280;23457;51.966;8.230;2024-01-15T07:08:08;99231.63;;;1.48;100.00
37610;BME280;23457;51.966;8.230;2024-01-15T07:10:34;99216.75;;;1.34;100.00
37610;BME280;23457;51.966;8.230;2024-01-15T07:13:03;99221.97;;;1.37;100.00
37610;BME280;23457;51.966;8.230;2024-01-15T07:15:31;99228.09;;;1.44;100.00
37610;BME280;23457;51.966;8.230;2024-01-15T07:17:58;99223.59;;;1.35;100.00
37610;BME280;23457;51.966;8.230;2024-01-15T07:20:25;99219.69;;;1.48;100.00
37610;BME280;23457;51.966;8.230;2024-01-15T07:22:51;99227.97;;;1.39;100.00
37610;BME280;23457;51.966;8.230;2024-01-15T07:25:18;99222.31;;;1.50;100.00
37610;BME280;23457;51.966;8.230;2024-01-15T07:27:45;99227.84;;;1.35;100.00
37610;BME280;23457;51.966;8.230;2024-01-15T07:30:13;99220.34;;;1.41;100.00
37610;BME280;23457;51.966;8.230;2024-01-15T07:32:43;99217.03;;;1.45;100.00
37610;BME280;23457;51.966;8.230;2024-01-15T07:35:10;99224.00;;;1.49;100.00
37610;BME280;23457;51.966;8.230;2024-01-15T07:37:37;99227.13;;;1.39;100.00
37610;BME280;23457;51.966;8.230;2024-01-15T07:40:04;99219.25;;;1.33;100.00
37610;BME280;23457;51.966;8.230;2024-01-15T07:42:32;99224.19;;;1.27;100.00
37610;BME280;23457;51.966;8.230;2024-01-15T07:44:59;99221.22;;;1.12;100.00
37610;BME280;23457;51.966;8.230;2024-01-15T07:47:26;99217.22;;;1.21;100.00
37610;BME280;23457;51.966;8.230;2024-01-15T07:49:53;99217.25;;;1.23;100.00
37610;BME280;23457;51.966;8.230;2024-01-15T07:52:20;99219.78;;;1.21;100.00
37610;BME280;23457;51.966;8.230;2024-01-15T07:54:47;99218.28;;;0.99;100.00
37610;BME280;23457;51.966;8.230;2024-01-15T07:57:14;99219.06;;;1.27;100.00
37610;BME280;23457;51.966;8.230;2024-01-15T07:59:41;99214.50;;;1.17;100.00
37610;BME280;23457;51.966;8.230;2024-01-15T08:02:07;99223.00;;;1.16;100.00
37610;BME280;23457;51.966;8.230;2024-01-15T08:04:34;99227.91;;;1.36;100.00
37610;BME280;23457;51.966;8.230;2024-01-15T08:07:01;99223.75;;;1.41;100.00
37610;BME280;23457;51.966;8.230;2024-01-15T08:09:29;99231.88;;;1.27;100.00
37610;BME280;23457;51.966;8.230;2024-01-15T08:11:56;99218.34;;;1.31;100.00
37610;BME280;23457;51.966;8.230;2024-01-15T08:14:22;99224.72;;;1.45;100.00
37610;BME280;23457;51.966;8.230;2024-01-15T08:16:49;99230.00;;;1.21;100.00
37610;BME280;23457;51.966;8.230;2024-01-15T08:19:17;99228.31;;;1.22;100.00
37610;BME280;23457;51.966;8.230;2024-01-15T08:21:44;99232.25;;;1.11;100.00
37610;BME280;23457;51.966;8.230;2024-01-15T08:24:11;99231.25;;;1.05;100.00
37610;BME280;23457;51.966;8.230;2024-01-15T08:26:38;99226.03;;;1.02;100.00
37610;BME280;23457;51.966;8.230;2024-01-15T08:29:04;99227.56;;;1.24;100.00
37610;BME280;23457;51.966;8.230;2024-01-15T08:31:31;99223.88;;;1.16;100.00
37610;BME280;23457;51.966;8.230;2024-01-15T08:33:58;99226.53;;;1.19;100.00
37610;BME280;23457;51.966;8.230;2024-01-15T08:36:26;99217.81;;;1.13;100.00
37610;BME280;23457;51.966;8.230;2024-01-15T08:38:52;99215.69;;;1.28;100.00
37610;BME280;23457;51.966;8.230;2024-01-15T08:41:19;99215.56;;;1.23;100.00
37610;BME280;23457;51.966;8.230;2024-01-15T08:43:46;99216.84;;;1.09;100.00
37610;BME280;23457;51.966;8.230;2024-01-15T08:46:13;99223.00;;;1.44;100.00
37610;BME280;23457;51.966;8.230;2024-01-15T08:48:40;99217.63;;;1.35;100.00
37610;BME280;23457;51.966;8.230;2024-01-15T08:51:06;99220.69;;;1.23;100.00
37610;BME280;23457;51.966;8.230;2024-01-15T08:53:35;99223.16;;;1.20;100.00
37610;BME280;23457;51.966;8.230;2024-01-15T08:56:01;99221.28;;;1.44;100.00
37610;BME280;23457;51.966;8.230;2024-01-15T08:58:28;99221.47;;;1.21;100.00
37610;BME280;23457;51.966;8.230;2024-01-15T09:00:55;99224.00;;;1.49;100.00
37610;BME280;23457;51.966;8.230;2024-01-15T09:03:22;99212.97;;;1.22;100.00
37610;BME280;23457;51.966;8.230;2024-01-15T09:05:48;99227.16;;;1.40;100.00
37610;BME280;23457;51.966;8.230;2024-01-15T09:08:16;99220.19;;;1.35;100.00
37610;BME280;23457;51.966;8.230;2024-01-15T09:10:43;99218.53;;;1.37;100.00
37610;BME280;23457;51.966;8.230;2024-01-15T09:13:10;99222.31;;;1.50;100.00
37610;BME280;23457;51.966;8.230;2024-01-15T09:15:36;99231.53;;;1.44;100.00
37610;BME280;23457;51.966;8.230;2024-01-15T09:18:03;99229.38;;;1.58;100.00
37610;BME280;23457;51.966;8.230;2024-01-15T09:20:33;99230.75;;;1.47;100.00
37610;BME280;23457;51.966;8.230;2024-01-15T09:23:00;99222.69;;;1.63;100.00
37610;BME280;23457;51.966;8.230;2024-01-15T09:25:27;99231.34;;;1.68;100.00
37610;BME280;23457;51.966;8.230;2024-01-15T09:27:54;99215.25;;;1.42;100.00
37610;BME280;23457;51.966;8.230;2024-01-15T09:30:21;99213.56;;;1.43;100.00
37610;BME280;23457;51.966;8.230;2024-01-15T09:32:47;99220.09;;;1.32;100.00
37610;BME280;23457;51.966;8.230;2024-01-15T09:35:15;99225.50;;;1.42;100.00
37610;BME280;23457;51.966;8.230;2024-01-15T09:37:44;99220.53;;;1.47;100.00
37610;BME280;23457;51.966;8.230;2024-01-15T09:40:14;99208.25;;;1.35;100.00
37610;BME280;23457;51.966;8.230;2024-01-15T09:42:42;99219.06;;;1.57;100.00
37610;BME280;23457;51.966;8.230;2024-01-15T09:45:09;99217.78;;;1.71;100.00
37610;BME280;23457;51.966;8.230;2024-01-15T09:47:37;99221.50;;;1.52;100.00
37610;BME280;23457;51.966;8.230;2024-01-15T09:50:11;99218.78;;;1.46;100.00
37610;BME280;23457;51.966;8.230;2024-01-15T09:52:39;99221.00;;;1.65;100.00
37610;BME280;23457;51.966;8.230;2024-01-15T09:55:08;99216.75;;;1.66;100.00
37610;BME280;23457;51.966;8.230;2024-01-15T09:57:39;99228.59;;;1.61;100.00
37610;BME280;23457;51.966;8.230;2024-01-15T10:00:07;99221.88;;;1.66;100.00
37610;BME280;23457;51.966;8.230;2024-01-15T10:02:41;99225.16;;;1.60;100.00
37610;BME280;23457;51.966;8.230;2024-01-15T10:05:08;99231.44;;;1.71;100.00
37610;BME280;23457;51.966;8.230;2024-01-15T10:07:37;99222.50;;;1.57;100.00
37610;BME280;23457;51.966;8.230;2024-01-15T10:10:07;99221.69;;;1.58;100.00
37610;BME280;23457;51.966;8.230;2024-01-15T10:12:42;99220.66;;;1.83;100.00
37610;BME280;23457;51.966;8.230;2024-01-15T10:15:12;99207.88;;;1.53;100.00
37610;BME280;23457;51.966;8.230;2024-01-15T10:17:44;99201.00;;;1.51;100.00
37610;BME280;23457;51.966;8.230;2024-01-15T10:20:11;99205.06;;;1.44;100.00
37610;BME280;23457;51.966;8.230;2024-01-15T10:22:41;99218.50;;;1.67;100.00
37610;BME280;23457;51.966;8.230;2024-01-15T10:25:12;99219.38;;;1.67;100.00
37610;BME280;23457;51.966;8.230;2024-01-15T10:27:40;99221.44;;;1.49;100.00
37610;BME280;23457;51.966;8.230;2024-01-15T10:30:11;99213.19;;;1.59;100.00
37610;BME280;23457;51.966;8.230;2024-01-15T10:32:57;99218.25;;;1.58;100.00
37610;BME280;23457;51.966;8.230;2024-01-15T10:35:28;99212.84;;;1.78;100.00
37610;BME280;23457;51.966;8.230;2024-01-15T10:37:55;99215.22;;;1.71;100.00
37610;BME280;23457;51.966;8.230;2024-01-15T10:40:23;99204.19;;;1.73;100.00
37610;BME280;23457;51.966;8.230;2024-01-15T10:42:49;99199.66;;;1.65;100.00
37610;BME280;23457;51.966;8.230;2024-01-15T10:45:16;99198.97;;;1.70;100.00
37610;BME280;23457;51.966;8.230;2024-01-15T10:47:43;99189.88;;;1.82;100.00
37610;BME280;23457;51.966;8.230;2024-01-15T10:50:10;99192.84;;;1.97;100.00
37610;BME280;23457;51.966;8.230;2024-01-15T10:52:38;99199.16;;;2.09;100.00
37610;BME280;23457;51.966;8.230;2024-01-15T10:55:08;99191.19;;;1.99;100.00
37610;BME280;23457;51.966;8.230;2024-01-15T10:57:45;99196.63;;;2.11;100.00
37610;BME280;23457;51.966;8.230;2024-01-15T11:00:14;99198.97;;;2.03;100.00
37610;BME280;23457;51.966;8.230;2024-01-15T11:02:42;99199.28;;;1.83;100.00
37610;BME280;23457;51.966;8.230;2024-01-15T11:05:09;99196.41;;;2.02;100.00
37610;BME280;23457;51.966;8.230;2024-01-15T11:07:39;99195.34;;;1.95;100.00
37610;BME280;23457;51.966;8.230;2024-01-15T11:10:07;99189.19;;;2.22;100.00
37610;BME280;23457;51.966;8.230;2024-01-15T11:12:40;99184.44;;;2.37;100.00
37610;BME280;23457;51.966;8.230;2024-01-15T11:15:07;99190.28;;;2.31;100.00
37610;BME280;23457;51.966;8.230;2024-01-15T11:17:58;99185.16;;;2.31;100.00
37610;BME280;23457;51.966;8.230;2024-01-15T11:20:27;99191.53;;;2.47;100.00
37610;BME280;23457;51.966;8.230;2024-01-15T11:22:54;99183.19;;;2.56;100.00
37610;BME280;23457;51.966;8.230;2024-01-15T11:25:24;99195.72;;;2.43;100.00
37610;BME280;23457;51.966;8.230;2024-01-15T11:28:00;99177.38;;;2.63;100.00
37610;BME280;23457;51.966;8.230;2024-01-15T11:30:27;99182.44;;;2.60;100.00
37610;BME280;23457;51.966;8.230;2024-01-15T11:32:54;99184.09;;;2.58;100.00
37610;BME280;23457;51.966;8.230;2024-01-15T11:35:21;99170.19;;;2.48;100.00
37610;BME280;23457;51.966;8.230;2024-01-15T11:40:23;99176.56;;;2.29;100.00
37610;BME280;23457;51.966;8.230;2024-01-15T11:43:06;99180.81;;;2.27;100.00
37610;BME280;23457;51.966;8.230;2024-01-15T11:45:36;99180.25;;;2.06;100.00
37610;BME280;23457;51.966;8.230;2024-01-15T11:50:40;99179.69;;;2.53;100.00
37610;BME280;23457;51.966;8.230;2024-01-15T11:53:40;99187.47;;;2.57;100.00
37610;BME280;23457;51.966;8.230;2024-01-15T11:56:21;99179.00;;;2.59;100.00
37610;BME280;23457;51.966;8.230;2024-01-15T11:58:49;99185.31;;;2.37;100.00
37610;BME280;23457;51.966;8.230;2024-01-15T12:01:18;99193.63;;;2.27;100.00
37610;BME280;23457;51.966;8.230;2024-01-15T12:03:47;99187.47;;;2.21;100.00
37610;BME280;23457;51.966;8.230;2024-01-15T12:06:14;99187.41;;;2.19;100.00
37610;BME280;23457;51.966;8.230;2024-01-15T12:08:40;99191.59;;;2.14;100.00
37610;BME280;23457;51.966;8.230;2024-01-15T12:11:11;99193.75;;;2.33;100.00
37610;BME280;23457;51.966;8.230;2024-01-15T12:13:40;99190.06;;;2.22;100.00
37610;BME280;23457;51.966;8.230;2024-01-15T12:16:08;99186.59;;;2.56;100.00
37610;BME280;23457;51.966;8.230;2024-01-15T12:18:35;99189.66;;;2.41;100.00
37610;BME280;23457;51.966;8.230;2024-01-15T12:21:04;99177.28;;;2.24;100.00
37610;BME280;23457;51.966;8.230;2024-01-15T12:23:30;99173.53;;;2.45;100.00
37610;BME280;23457;51.966;8.230;2024-01-15T12:25:57;99177.72;;;2.40;100.00
37610;BME280;23457;51.966;8.230;2024-01-15T12:28:27;99170.72;;;2.71;100.00
37610;BME280;23457;51.966;8.230;2024-01-15T12:30:55;99174.38;;;2.44;100.00
37610;BME280;23457;51.966;8.230;2024-01-15T12:33:22;99185.94;;;2.63;100.00
37610;BME280;23457;51.966;8.230;2024-01-15T12:35:55;99189.84;;;2.47;100.00
37610;BME280;23457;51.966;8.230;2024-01-15T12:38:21;99193.84;;;2.36;100.00
37610;BME280;23457;51.966;8.230;2024-01-15T12:40:48;99202.78;;;2.53;100.00
37610;BME280;23457;51.966;8.230;2024-01-15T12:43:17;99190.66;;;2.46;100.00
37610;BME280;23457;51.966;8.230;2024-01-15T12:45:44;99187.28;;;2.47;100.00
37610;BME280;23457;51.966;8.230;2024-01-15T12:48:10;99198.31;;;2.45;100.00
37610;BME280;23457;51.966;8.230;2024-01-15T12:50:38;99192.75;;;2.63;100.00
37610;BME280;23457;51.966;8.230;2024-01-15T13:00:58;99181.63;;;2.26;100.00
37610;BME280;23457;51.966;8.230;2024-01-15T13:06:39;99183.06;;;2.49;100.00
37610;BME280;23457;51.966;8.230;2024-01-15T13:09:31;99193.06;;;2.39;100.00
37610;BME280;23457;51.966;8.230;2024-01-15T13:11:58;99184.25;;;2.28;100.00
37610;BME280;23457;51.966;8.230;2024-01-15T13:14:25;99178.78;;;2.15;100.00
37610;BME280;23457;51.966;8.230;2024-01-15T13:16:52;99194.81;;;2.07;100.00
37610;BME280;23457;51.966;8.230;2024-01-15T13:19:20;99172.72;;;2.12;100.00
37610;BME280;23457;51.966;8.230;2024-01-15T13:21:50;99188.22;;;2.16;100.00